createdAt,value
2019-04-27T00:00:46.989Z,7.90
2019-04-27T00:03:26.301Z,7.90
2019-04-27T00:05:59.457Z,7.63
2019-04-27T00:08:38.608Z,7.37
2019-04-27T00:11:23.097Z,7.20
2019-04-27T00:13:53.596Z,7.60
2019-04-27T00:16:47.159Z,7.50
2019-04-27T00:19:27.389Z,7.60
2019-04-27T00:22:00.264Z,7.90
2019-04-27T00:24:28.985Z,7.63
2019-04-27T00:26:57.703Z,7.20
2019-04-27T00:29:27.735Z,8.13
2019-04-27T00:31:56.469Z,7.53
2019-04-27T00:34:25.197Z,7.70
2019-04-27T00:36:58.307Z,7.73
2019-04-27T00:39:43.582Z,8.63
2019-04-27T00:42:13.522Z,8.20
2019-04-27T00:44:43.027Z,8.97
2019-04-27T00:47:13.706Z,8.37
2019-04-27T00:49:44.225Z,8.43
2019-04-27T00:52:13.921Z,8.47
2019-04-27T00:54:44.113Z,7.90
2019-04-27T00:57:24.521Z,8.33
2019-04-27T00:59:54.854Z,7.77
2019-04-27T01:02:30.998Z,7.63
2019-04-27T01:05:00.120Z,7.77
2019-04-27T01:07:28.836Z,7.67
2019-04-27T01:09:57.722Z,8.57
2019-04-27T01:12:26.441Z,7.73
2019-04-27T01:14:55.159Z,7.67
2019-04-27T01:17:24.789Z,8.00
2019-04-27T01:19:53.531Z,7.90
2019-04-27T01:22:22.272Z,7.30
2019-04-27T01:24:51.024Z,8.57
2019-04-27T01:27:24.004Z,8.00
2019-04-27T01:29:54.592Z,8.17
2019-04-27T01:32:23.312Z,7.90
2019-04-27T01:34:52.028Z,8.37
2019-04-27T01:37:21.174Z,8.47
2019-04-27T01:39:50.462Z,7.97
2019-04-27T01:42:19.851Z,7.93
2019-04-27T01:44:50.820Z,7.70
2019-04-27T01:47:19.094Z,7.50
2019-04-27T01:49:49.427Z,8.57
2019-04-27T01:52:19.379Z,8.27
2019-04-27T01:54:49.534Z,8.30
2019-04-27T01:57:19.396Z,8.23
2019-04-27T01:59:48.889Z,9.03
2019-04-27T02:02:22.839Z,8.43
2019-04-27T02:04:53.179Z,9.10
2019-04-27T02:07:21.935Z,8.33
2019-04-27T02:09:50.666Z,9.20
2019-04-27T02:12:19.423Z,8.20
2019-04-27T02:14:49.070Z,8.27
2019-04-27T02:17:18.708Z,8.70
2019-04-27T02:19:49.263Z,7.90
2019-04-27T02:22:18.672Z,8.93
2019-04-27T02:24:49.193Z,8.93
2019-04-27T02:27:19.760Z,8.87
2019-04-27T02:30:05.323Z,8.20
2019-04-27T02:32:51.973Z,7.77
2019-04-27T02:35:20.698Z,9.27
2019-04-27T02:37:50.206Z,9.77
2019-04-27T02:40:42.662Z,9.10
2019-04-27T02:43:11.600Z,9.60
2019-04-27T02:45:40.443Z,9.83
2019-04-27T02:48:09.903Z,9.00
2019-04-27T02:50:39.931Z,9.10
2019-04-27T02:53:11.098Z,8.87
2019-04-27T02:55:39.921Z,9.53
2019-04-27T02:58:09.973Z,9.93
2019-04-27T03:00:39.955Z,8.63
2019-04-27T03:03:10.752Z,9.23
2019-04-27T03:05:40.118Z,8.73
2019-04-27T03:08:10.185Z,8.83
2019-04-27T03:10:40.616Z,9.27
2019-04-27T03:13:13.621Z,8.20
2019-04-27T03:16:11.363Z,8.93
2019-04-27T03:18:40.557Z,8.87
2019-04-27T03:21:13.094Z,9.23
2019-04-27T03:23:41.462Z,8.77
2019-04-27T03:26:14.495Z,9.40
2019-04-27T03:28:44.205Z,9.27
2019-04-27T03:31:14.058Z,9.20
2019-04-27T03:33:43.496Z,9.60
2019-04-27T03:36:13.217Z,9.80
2019-04-27T03:38:42.412Z,8.93
2019-04-27T03:41:11.244Z,9.20
2019-04-27T03:43:41.429Z,8.60
2019-04-27T03:46:10.565Z,9.60
2019-04-27T03:48:40.668Z,9.47
2019-04-27T03:51:19.988Z,8.33
2019-04-27T03:54:01.938Z,8.50
2019-04-27T03:56:36.034Z,9.70
2019-04-27T03:59:10.136Z,8.63
2019-04-27T04:01:39.825Z,9.33
2019-04-27T04:04:10.345Z,9.10
2019-04-27T04:06:40.055Z,8.60
2019-04-27T04:09:12.941Z,9.77
2019-04-27T04:11:46.165Z,9.00
2019-04-27T04:14:16.474Z,10.20
2019-04-27T04:16:46.835Z,9.50
2019-04-27T04:19:15.570Z,9.03
2019-04-27T04:21:44.297Z,8.27
2019-04-27T04:24:13.499Z,8.73
2019-04-27T04:26:42.246Z,8.40
2019-04-27T04:29:11.012Z,8.93
2019-04-27T04:31:46.135Z,7.90
2019-04-27T04:34:14.849Z,8.37
2019-04-27T04:36:43.573Z,8.13
2019-04-27T04:39:12.874Z,7.20
2019-04-27T04:42:01.612Z,7.70
2019-04-27T04:44:47.042Z,7.20
2019-04-27T04:47:19.476Z,7.50
2019-04-27T04:49:54.602Z,7.67
2019-04-27T04:52:19.746Z,7.90
2019-04-27T04:54:49.602Z,7.50
2019-04-27T04:57:21.937Z,7.70
2019-04-27T04:59:51.493Z,8.27
2019-04-27T05:02:20.431Z,8.43
2019-04-27T05:04:49.282Z,7.67
2019-04-27T05:07:19.414Z,8.00
2019-04-27T05:09:48.642Z,7.70
2019-04-27T05:12:19.007Z,7.40
2019-04-27T05:14:48.965Z,7.87
2019-04-27T05:17:19.474Z,7.30
2019-04-27T05:19:49.178Z,7.30
2019-04-27T05:22:19.514Z,8.17
2019-04-27T05:24:49.916Z,7.17
2019-04-27T05:27:19.105Z,9.87
2019-04-27T05:29:48.826Z,6.90
2019-04-27T05:32:18.879Z,8.00
2019-04-27T05:34:49.537Z,7.30
2019-04-27T05:37:27.703Z,7.70
2019-04-27T05:39:48.966Z,7.33
2019-04-27T05:42:20.010Z,7.17
2019-04-27T05:45:03.568Z,8.23
2019-04-27T05:47:36.831Z,8.00
2019-04-27T05:50:09.058Z,7.70
2019-04-27T05:52:38.670Z,7.77
2019-04-27T05:55:10.408Z,7.47
2019-04-27T05:57:39.254Z,7.20
2019-04-27T06:00:09.336Z,7.60
2019-04-27T06:02:39.729Z,7.60
2019-04-27T06:05:08.933Z,7.70
2019-04-27T06:07:39.507Z,7.97
2019-04-27T06:10:09.548Z,8.00
2019-04-27T06:12:39.604Z,7.63
2019-04-27T06:15:09.755Z,7.50
2019-04-27T06:17:38.804Z,7.80
2019-04-27T06:20:09.108Z,7.63
2019-04-27T06:22:38.998Z,7.40
2019-04-27T06:25:11.340Z,8.77
2019-04-27T06:27:39.691Z,8.40
2019-04-27T06:30:09.407Z,9.80
2019-04-27T06:32:39.575Z,7.73
2019-04-27T06:35:09.861Z,8.40
2019-04-27T06:37:39.834Z,8.67
2019-04-27T06:40:09.797Z,7.90
2019-04-27T06:42:39.809Z,8.50
2019-04-27T06:45:09.928Z,8.00
2019-04-27T06:47:39.661Z,8.20
2019-04-27T06:50:09.560Z,8.63
2019-04-27T06:52:39.015Z,8.63
2019-04-27T06:55:11.102Z,7.93
2019-04-27T06:57:41.172Z,7.30
2019-04-27T07:00:10.474Z,7.73
2019-04-27T07:02:39.342Z,7.60
2019-04-27T07:05:09.087Z,7.93
2019-04-27T07:07:39.514Z,7.30
2019-04-27T07:10:08.694Z,8.20
2019-04-27T07:12:40.709Z,7.67
2019-04-27T07:15:08.987Z,7.40
2019-04-27T07:17:38.913Z,7.53
2019-04-27T07:20:09.073Z,8.00
2019-04-27T07:22:39.698Z,12.27
2019-04-27T07:25:09.100Z,9.93
2019-04-27T07:27:39.472Z,8.43
2019-04-27T07:30:11.734Z,8.00
2019-04-27T07:32:39.705Z,8.33
2019-04-27T07:35:09.841Z,8.33
2019-04-27T07:37:39.365Z,8.17
2019-04-27T07:40:09.202Z,9.80
2019-04-27T07:42:40.816Z,9.47
2019-04-27T07:45:11.311Z,8.77
2019-04-27T07:47:41.801Z,9.73
2019-04-27T07:50:10.622Z,9.40
2019-04-27T07:52:40.530Z,12.50
2019-04-27T07:55:09.599Z,11.07
2019-04-27T07:57:39.851Z,12.37
2019-04-27T08:00:09.954Z,10.80
2019-04-27T08:02:39.078Z,9.83
2019-04-27T08:07:36.464Z,9.40
2019-04-27T08:10:05.795Z,9.17
2019-04-27T08:12:34.528Z,9.67
2019-04-27T08:15:03.353Z,8.50
2019-04-27T08:17:32.076Z,7.97
2019-04-27T08:20:00.802Z,7.17
2019-04-27T08:22:29.713Z,7.40
2019-04-27T08:24:59.516Z,7.50
2019-04-27T08:27:35.903Z,7.60
2019-04-27T08:30:13.942Z,7.80
2019-04-27T08:32:49.541Z,8.23
2019-04-27T08:35:19.496Z,7.10
2019-04-27T08:37:49.567Z,6.67
2019-04-27T08:40:19.422Z,5.87
2019-04-27T08:42:50.914Z,6.70
2019-04-27T08:45:19.298Z,7.80
2019-04-27T08:47:49.724Z,7.80
2019-04-27T08:50:19.240Z,6.30
2019-04-27T08:52:50.224Z,5.77
2019-04-27T08:55:19.575Z,5.40
2019-04-27T08:57:49.015Z,6.00
2019-04-27T09:00:19.428Z,4.87
2019-04-27T09:02:50.293Z,5.83
2019-04-27T09:05:21.170Z,6.20
2019-04-27T09:07:59.505Z,5.50
2019-04-27T09:10:41.582Z,4.93
2019-04-27T09:13:19.506Z,5.63
2019-04-27T09:15:52.805Z,4.87
2019-04-27T09:18:23.348Z,5.07
2019-04-27T09:20:56.758Z,4.90
2019-04-27T09:23:25.679Z,4.63
2019-04-27T09:25:54.788Z,7.50
2019-04-27T09:28:23.527Z,4.83
2019-04-27T09:30:52.439Z,7.33
2019-04-27T09:33:22.367Z,5.63
2019-04-27T09:35:51.267Z,5.20
2019-04-27T09:38:19.984Z,4.67
2019-04-27T09:40:48.847Z,5.07
2019-04-27T09:43:17.563Z,6.80
2019-04-27T09:45:47.197Z,5.77
2019-04-27T09:48:17.603Z,5.30
2019-04-27T09:50:48.401Z,4.30
2019-04-27T09:53:17.175Z,4.67
2019-04-27T09:55:48.580Z,5.30
2019-04-27T09:58:18.571Z,4.70
2019-04-27T10:00:49.139Z,4.30
2019-04-27T10:03:17.857Z,4.30
2019-04-27T10:05:46.602Z,4.90
2019-04-27T10:08:16.985Z,4.03
2019-04-27T10:10:46.003Z,3.97
2019-04-27T10:13:17.798Z,3.73
2019-04-27T10:15:46.659Z,3.90
2019-04-27T10:18:16.309Z,4.37
2019-04-27T10:20:56.923Z,4.10
2019-04-27T10:23:15.884Z,4.03
2019-04-27T10:25:45.787Z,4.17
2019-04-27T10:28:14.678Z,4.30
2019-04-27T10:30:43.592Z,3.80
2019-04-27T10:33:12.315Z,4.10
2019-04-27T10:35:41.036Z,4.97
2019-04-27T10:38:10.025Z,3.87
2019-04-27T10:40:38.882Z,5.57
2019-04-27T10:43:07.592Z,4.57
2019-04-27T10:45:37.839Z,5.10
2019-04-27T10:48:06.778Z,4.10
2019-04-27T10:50:36.593Z,4.40
2019-04-27T10:53:06.969Z,12.13
2019-04-27T10:55:36.334Z,4.07
2019-04-27T10:58:05.438Z,4.00
2019-04-27T11:00:45.078Z,4.83
2019-04-27T11:03:16.647Z,3.90
2019-04-27T11:05:47.026Z,4.37
2019-04-27T11:08:16.739Z,4.73
2019-04-27T11:10:46.198Z,4.27
2019-04-27T11:13:16.522Z,5.40
2019-04-27T11:15:46.187Z,5.23
2019-04-27T11:18:16.719Z,4.00
2019-04-27T11:20:46.724Z,4.77
2019-04-27T11:23:16.389Z,4.70
2019-04-27T11:25:46.813Z,5.13
2019-04-27T11:28:15.808Z,5.07
2019-04-27T11:30:44.686Z,5.07
2019-04-27T11:33:13.412Z,5.80
2019-04-27T11:35:49.976Z,5.43
2019-04-27T11:38:18.695Z,5.23
2019-04-27T11:40:47.443Z,4.90
2019-04-27T11:43:16.226Z,5.17
2019-04-27T11:45:45.787Z,5.10
2019-04-27T11:48:16.146Z,5.00
2019-04-27T11:50:45.890Z,5.47
2019-04-27T11:53:22.580Z,6.00
2019-04-27T11:55:46.343Z,5.70
2019-04-27T11:58:16.485Z,4.53
2019-04-27T12:00:45.337Z,5.40
2019-04-27T12:03:14.065Z,6.33
2019-04-27T12:05:42.839Z,5.57
2019-04-27T12:08:11.572Z,4.80
2019-04-27T12:10:40.294Z,5.47
2019-04-27T12:13:09.061Z,5.30
2019-04-27T12:15:38.164Z,5.90
2019-04-27T12:18:09.005Z,7.03
2019-04-27T12:20:38.283Z,5.37
2019-04-27T12:23:07.020Z,6.27
2019-04-27T12:25:37.410Z,5.67
2019-04-27T12:28:25.614Z,5.00
2019-04-27T12:30:56.123Z,5.40
2019-04-27T12:33:25.574Z,6.10
2019-04-27T12:35:56.882Z,5.53
2019-04-27T12:38:26.341Z,5.57
2019-04-27T12:40:56.596Z,5.97
2019-04-27T12:43:25.581Z,5.63
2019-04-27T12:45:55.917Z,5.87
2019-04-27T12:48:27.696Z,5.17
2019-04-27T12:50:56.550Z,5.43
2019-04-27T12:53:32.890Z,5.40
2019-04-27T12:56:12.039Z,7.00
2019-04-27T12:58:45.058Z,6.87
2019-04-27T13:01:15.782Z,10.27
2019-04-27T13:03:46.235Z,8.33
2019-04-27T13:06:15.099Z,7.70
2019-04-27T13:08:45.699Z,5.63
2019-04-27T13:11:16.109Z,6.70
2019-04-27T13:13:44.752Z,8.60
2019-04-27T13:16:13.471Z,5.77
2019-04-27T13:18:44.490Z,5.77
2019-04-27T13:21:13.214Z,5.73
2019-04-27T13:23:41.937Z,6.77
2019-04-27T13:26:10.920Z,6.20
2019-04-27T13:28:39.651Z,5.80
2019-04-27T13:31:08.361Z,6.10
2019-04-27T13:33:37.252Z,6.33
2019-04-27T13:36:08.604Z,7.00
2019-04-27T13:38:37.326Z,6.80
2019-04-27T13:41:07.795Z,7.07
2019-04-27T13:43:39.993Z,6.50
2019-04-27T13:46:15.743Z,6.23
2019-04-27T13:49:04.580Z,6.60
2019-04-27T13:51:47.831Z,5.97
2019-04-27T13:54:23.684Z,6.73
2019-04-27T13:56:47.674Z,6.40
2019-04-27T13:59:17.310Z,6.80
2019-04-27T14:01:46.056Z,7.00
2019-04-27T14:04:14.761Z,7.87
2019-04-27T14:06:44.342Z,6.33
2019-04-27T14:09:13.067Z,6.53
2019-04-27T14:11:41.797Z,6.43
2019-04-27T14:14:10.767Z,6.17
2019-04-27T14:16:39.488Z,6.73
2019-04-27T14:19:08.619Z,7.60
2019-04-27T14:21:38.800Z,6.27
2019-04-27T14:24:07.620Z,6.30
2019-04-27T14:26:36.346Z,6.50
2019-04-27T14:29:05.225Z,6.23
2019-04-27T14:31:33.951Z,7.70
2019-04-27T14:34:02.676Z,6.50
2019-04-27T14:36:31.512Z,9.50
2019-04-27T14:39:00.325Z,8.87
2019-04-27T14:41:29.090Z,6.30
2019-04-27T14:44:07.475Z,7.33
2019-04-27T14:46:30.469Z,6.40
2019-04-27T14:48:58.937Z,5.80
2019-04-27T14:51:28.585Z,6.27
2019-04-27T14:53:58.872Z,5.43
2019-04-27T14:56:28.259Z,5.73
2019-04-27T14:58:58.656Z,6.10
2019-04-27T15:01:29.048Z,5.97
2019-04-27T15:03:57.858Z,6.53
2019-04-27T15:06:26.636Z,6.20
2019-04-27T15:08:55.780Z,8.47
2019-04-27T15:11:24.653Z,7.23
2019-04-27T15:13:56.790Z,5.20
2019-04-27T15:16:23.964Z,5.70
2019-04-27T15:18:57.069Z,6.93
2019-04-27T15:21:25.959Z,7.00
2019-04-27T15:23:54.678Z,6.97
2019-04-27T15:26:24.099Z,7.47
2019-04-27T15:28:55.043Z,8.00
2019-04-27T15:31:30.612Z,8.50
2019-04-27T15:34:04.131Z,9.23
2019-04-27T15:36:34.432Z,10.30
2019-04-27T15:39:26.975Z,8.23
2019-04-27T15:41:56.339Z,10.13
2019-04-27T15:44:27.846Z,9.33
2019-04-27T15:46:58.024Z,11.10
2019-04-27T15:49:26.743Z,9.13
2019-04-27T15:51:56.242Z,9.53
2019-04-27T15:54:29.020Z,11.87
2019-04-27T15:56:55.636Z,11.37
2019-04-27T15:59:30.879Z,11.97
2019-04-27T16:01:58.985Z,16.17
2019-04-27T16:04:27.713Z,13.70
2019-04-27T16:06:58.266Z,14.33
2019-04-27T16:09:28.314Z,14.03
2019-04-27T16:12:03.603Z,14.93
2019-04-27T16:14:28.937Z,14.67
2019-04-27T16:16:58.832Z,12.70
2019-04-27T16:19:28.703Z,10.60
2019-04-27T16:21:59.125Z,8.67
2019-04-27T16:24:29.010Z,7.63
2019-04-27T16:26:59.121Z,8.63
2019-04-27T16:29:31.474Z,4.07
2019-04-27T16:32:02.741Z,3.47
2019-04-27T16:34:32.970Z,4.97
2019-04-27T16:37:00.788Z,6.57
2019-04-27T16:39:29.503Z,4.87
2019-04-27T16:41:58.709Z,5.93
2019-04-27T16:44:27.690Z,5.77
2019-04-27T16:46:58.160Z,7.03
2019-04-27T16:49:28.899Z,6.00
2019-04-27T16:51:59.069Z,7.07
2019-04-27T16:54:28.304Z,9.27
2019-04-27T16:57:03.297Z,12.13
2019-04-27T16:59:42.651Z,11.67
2019-04-27T17:01:58.315Z,13.03
2019-04-27T17:04:27.037Z,11.90
2019-04-27T17:06:55.929Z,12.47
2019-04-27T17:09:24.794Z,12.53
2019-04-27T17:11:53.618Z,11.20
2019-04-27T17:14:39.404Z,10.57
2019-04-27T17:17:25.715Z,4.03
2019-04-27T17:19:58.027Z,2.03
2019-04-27T17:22:28.705Z,1.80
2019-04-27T17:24:58.110Z,2.30
2019-04-27T17:27:31.873Z,1.90
2019-04-27T17:30:01.743Z,2.17
2019-04-27T17:32:33.802Z,1.67
2019-04-27T17:35:05.686Z,1.70
2019-04-27T17:37:33.852Z,1.30
2019-04-27T17:40:02.869Z,1.60
2019-04-27T17:42:31.857Z,1.20
2019-04-27T17:45:02.262Z,1.40
2019-04-27T17:47:30.978Z,1.10
2019-04-27T17:49:59.836Z,1.20
2019-04-27T17:52:28.553Z,1.20
2019-04-27T17:54:58.927Z,1.40
2019-04-27T17:57:30.172Z,1.20
2019-04-27T18:00:03.470Z,0.90
2019-04-27T18:02:33.866Z,1.03
2019-04-27T18:05:02.955Z,1.77
2019-04-27T18:07:34.905Z,1.80
2019-04-27T18:10:02.123Z,1.10
2019-04-27T18:12:31.078Z,1.50
2019-04-27T18:14:59.801Z,1.33
2019-04-27T18:17:29.632Z,1.30
2019-04-27T18:20:00.639Z,1.40
2019-04-27T18:22:32.260Z,1.80
2019-04-27T18:25:09.553Z,1.87
2019-04-27T18:27:49.835Z,2.67
2019-04-27T18:30:20.589Z,2.57
2019-04-27T18:32:49.306Z,2.80
2019-04-27T18:35:19.973Z,2.13
2019-04-27T18:37:48.636Z,1.90
2019-04-27T18:40:18.210Z,2.63
2019-04-27T18:42:47.159Z,2.47
2019-04-27T18:45:18.265Z,2.80
2019-04-27T18:47:48.164Z,2.60
2019-04-27T18:50:25.395Z,2.67
2019-04-27T18:52:55.687Z,2.13
2019-04-27T18:55:24.403Z,1.97
2019-04-27T18:57:54.489Z,2.60
2019-04-27T19:00:23.484Z,2.30
2019-04-27T19:02:52.211Z,4.60
2019-04-27T19:05:20.970Z,4.23
2019-04-27T19:07:49.713Z,2.60
2019-04-27T19:10:19.196Z,2.90
2019-04-27T19:12:48.476Z,2.80
2019-04-27T19:15:18.340Z,3.23
2019-04-27T19:17:48.909Z,3.17
2019-04-27T19:20:18.665Z,3.73
2019-04-27T19:22:49.013Z,2.73
2019-04-27T19:25:19.530Z,2.50
2019-04-27T19:28:09.118Z,2.37
2019-04-27T19:30:45.814Z,2.87
2019-04-27T19:33:14.566Z,2.50
2019-04-27T19:35:43.291Z,2.67
2019-04-27T19:38:12.023Z,3.40
2019-04-27T19:40:40.886Z,3.07
2019-04-27T19:43:10.319Z,2.73
2019-04-27T19:45:39.257Z,3.07
2019-04-27T19:48:10.403Z,3.60
2019-04-27T19:50:39.233Z,3.30
2019-04-27T19:53:09.721Z,7.90
2019-04-27T19:55:40.424Z,5.20
2019-04-27T19:58:09.278Z,7.90
2019-04-27T20:00:39.841Z,8.57
2019-04-27T20:03:11.113Z,4.60
2019-04-27T20:05:39.930Z,5.30
2019-04-27T20:08:10.224Z,10.97
2019-04-27T20:10:39.038Z,10.77
2019-04-27T20:13:07.762Z,7.17
2019-04-27T20:15:36.479Z,4.93
2019-04-27T20:18:05.401Z,3.43
2019-04-27T20:20:34.130Z,3.67
2019-04-27T20:23:02.861Z,3.83
2019-04-27T20:25:31.746Z,3.80
2019-04-27T20:28:00.966Z,6.03
2019-04-27T20:30:31.534Z,5.63
2019-04-27T20:33:00.960Z,4.63
2019-04-27T20:35:29.760Z,5.03
2019-04-27T20:37:58.488Z,4.07
2019-04-27T20:40:27.440Z,4.03
2019-04-27T20:42:56.162Z,9.23
2019-04-27T20:45:24.880Z,4.53
2019-04-27T20:47:53.831Z,4.10
2019-04-27T20:50:22.561Z,4.53
2019-04-27T20:52:52.855Z,4.53
2019-04-27T20:55:21.648Z,4.77
2019-04-27T20:58:01.041Z,5.97
2019-04-27T21:00:22.091Z,4.00
2019-04-27T21:02:52.484Z,5.57
2019-04-27T21:05:22.775Z,5.00
2019-04-27T21:07:53.070Z,4.63
2019-04-27T21:10:22.015Z,4.73
2019-04-27T21:12:51.838Z,5.10
2019-04-27T21:15:21.417Z,4.60
2019-04-27T21:17:51.200Z,4.07
2019-04-27T21:20:21.911Z,3.97
2019-04-27T21:22:51.505Z,3.70
2019-04-27T21:25:22.088Z,4.47
2019-04-27T21:27:51.329Z,4.57
2019-04-27T21:30:21.325Z,4.30
2019-04-27T21:32:50.846Z,4.13
2019-04-27T21:35:21.126Z,4.20
2019-04-27T21:37:51.199Z,4.77
2019-04-27T21:40:21.449Z,4.63
2019-04-27T21:42:51.120Z,4.23
2019-04-27T21:45:21.741Z,4.60
2019-04-27T21:47:51.886Z,4.70
2019-04-27T21:50:23.299Z,5.00
2019-04-27T21:53:02.567Z,5.47
2019-04-27T21:55:33.043Z,5.47
2019-04-27T21:58:01.771Z,5.47
2019-04-27T22:00:42.517Z,5.40
2019-04-27T22:03:11.590Z,5.17
2019-04-27T22:05:41.779Z,5.27
2019-04-27T22:08:11.909Z,5.60
2019-04-27T22:10:40.796Z,5.80
2019-04-27T22:13:09.515Z,5.40
2019-04-27T22:15:38.399Z,5.50
2019-04-27T22:18:07.319Z,5.07
2019-04-27T22:20:36.046Z,5.70
2019-04-27T22:23:06.389Z,4.80
2019-04-27T22:25:36.677Z,4.77
2019-04-27T22:28:05.502Z,5.30
2019-04-27T22:30:35.090Z,5.43
2019-04-27T22:33:03.820Z,6.80
2019-04-27T22:35:32.550Z,6.40
2019-04-27T22:38:02.020Z,8.30
2019-04-27T22:40:41.941Z,13.13
2019-04-27T22:43:28.501Z,6.37
2019-04-27T22:45:58.132Z,5.93
2019-04-27T22:48:26.852Z,6.67
2019-04-27T22:50:56.588Z,10.97
2019-04-27T22:53:25.340Z,8.23
2019-04-27T22:56:11.134Z,6.60
2019-04-27T22:59:00.581Z,8.23
2019-04-27T23:01:29.744Z,6.43
2019-04-27T23:04:01.905Z,5.63
2019-04-27T23:06:30.487Z,5.77
2019-04-27T23:09:01.667Z,6.10
2019-04-27T23:11:31.345Z,6.63
2019-04-27T23:14:01.047Z,6.33
2019-04-27T23:16:31.499Z,6.83
2019-04-27T23:19:01.830Z,6.57
2019-04-27T23:21:31.251Z,6.60
2019-04-27T23:24:01.846Z,6.80
2019-04-27T23:26:32.144Z,7.47
2019-04-27T23:29:11.013Z,7.40
2019-04-27T23:31:40.695Z,8.00
2019-04-27T23:34:09.493Z,7.90
2019-04-27T23:36:38.176Z,7.27
2019-04-27T23:39:08.036Z,6.87
2019-04-27T23:41:36.721Z,7.00
2019-04-27T23:44:05.414Z,6.47
2019-04-27T23:46:34.339Z,7.17
2019-04-27T23:49:03.016Z,7.27
2019-04-27T23:51:39.252Z,6.97
2019-04-27T23:54:07.948Z,6.33
2019-04-27T23:56:36.626Z,6.67
2019-04-27T23:59:05.528Z,6.63
